Time;durP1;ratioP1;P1;durP2;ratioP2;P2;SDS_P1;SDS_P2;PMS_P1;PMS_P2;Temp;Humidity;BMP_temperature;BMP_pressure;BME280_temperature;BME280_humidity;BME280_pressure;Samples;Min_cycle;Max_cycle;Signal;HPM_P1;HPM_P2
2023/07/14 00:01:52;;;;;;;8.48;4.68;;;16.20;99.90;;;;;;5013935;28;20378;-66
2023/07/14 00:04:27;;;;;;;7.15;4.63;;;16.20;99.90;;;;;;5014052;28;20034;-66
2023/07/14 00:06:53;;;;;;;5.85;4.68;;;16.20;99.90;;;;;;5013877;28;20037;-66
2023/07/14 00:09:27;;;;;;;8.02;5.05;;;16.20;99.90;;;;;;5014025;28;20049;-66
2023/07/14 00:11:53;;;;;;;8.57;5.25;;;16.10;99.90;;;;;;5013887;28;20046;-66
2023/07/14 00:14:18;;;;;;;11.05;5.68;;;16.00;99.90;;;;;;5013698;28;20041;-66
2023/07/14 00:16:44;;;;;;;11.32;5.22;;;16.00;99.90;;;;;;5013771;28;20406;-66
2023/07/14 00:19:14;;;;;;;9.75;5.47;;;16.00;99.90;;;;;;5013901;28;20125;-66
2023/07/14 00:21:40;;;;;;;8.50;5.07;;;16.00;99.90;;;;;;5013644;28;20569;-66
2023/07/14 00:24:12;;;;;;;7.63;5.15;;;16.00;99.90;;;;;;5013124;28;20046;-66
2023/07/14 00:26:40;;;;;;;8.73;5.35;;;16.00;99.90;;;;;;5013291;28;20041;-66
2023/07/14 00:29:30;;;;;;;8.93;5.50;;;15.90;99.90;;;;;;5012287;28;20046;-66
2023/07/14 00:31:57;;;;;;;8.68;5.18;;;15.90;99.90;;;;;;5013484;28;20539;-66
2023/07/14 00:34:23;;;;;;;9.15;4.63;;;15.90;99.90;;;;;;5013587;28;20085;-66
2023/07/14 00:36:49;;;;;;;8.43;4.72;;;15.80;99.90;;;;;;5013301;28;20096;-66
2023/07/14 00:39:15;;;;;;;6.68;4.85;;;15.80;99.90;;;;;;5013387;28;20509;-66
2023/07/14 00:41:42;;;;;;;5.75;4.25;;;15.70;99.90;;;;;;5013495;28;20077;-66
2023/07/14 00:44:14;;;;;;;8.02;3.97;;;15.60;99.90;;;;;;5013478;28;20038;-66
2023/07/14 00:46:40;;;;;;;8.15;5.43;;;15.60;99.90;;;;;;5013147;28;20121;-66
2023/07/14 00:49:13;;;;;;;8.27;4.97;;;15.50;99.90;;;;;;5013332;28;20397;-66
2023/07/14 00:51:40;;;;;;;8.65;6.05;;;15.40;99.90;;;;;;5013323;28;20037;-66
2023/07/14 00:54:19;;;;;;;8.48;5.38;;;15.40;99.90;;;;;;5013093;28;20045;-66
2023/07/14 00:56:47;;;;;;;11.30;6.07;;;15.40;99.90;;;;;;5012976;28;20081;-66
2023/07/14 00:59:17;;;;;;;10.07;5.82;;;15.30;99.90;;;;;;5013140;28;20491;-66
2023/07/14 01:02:11;;;;;;;8.73;5.50;;;15.30;99.90;;;;;;5005319;28;20045;-66
2023/07/14 01:04:39;;;;;;;13.10;5.95;;;15.30;99.90;;;;;;5033379;22;20141;-68
2023/07/14 01:07:05;;;;;;;9.00;6.05;;;15.20;99.90;;;;;;5012260;28;20066;-67
2023/07/14 01:09:32;;;;;;;10.38;6.97;;;15.30;99.90;;;;;;5012325;28;20030;-67
2023/07/14 01:12:00;;;;;;;8.93;6.38;;;15.20;99.90;;;;;;5012804;28;20069;-67
2023/07/14 01:14:33;;;;;;;8.57;5.82;;;15.30;99.90;;;;;;5012664;28;20049;-67
2023/07/14 01:17:01;;;;;;;8.63;5.93;;;15.30;99.90;;;;;;4994830;28;20030;-67
2023/07/14 01:19:36;;;;;;;9.18;6.00;;;15.20;99.90;;;;;;4995241;28;20552;-67
2023/07/14 01:22:40;;;;;;;7.30;5.40;;;15.30;99.90;;;;;;4994961;28;20038;-67
2023/07/14 01:25:35;;;;;;;8.55;5.97;;;15.20;99.90;;;;;;5009888;28;20053;-67
2023/07/14 01:28:07;;;;;;;8.02;5.90;;;15.30;99.90;;;;;;4989350;28;20050;-67
2023/07/14 01:30:34;;;;;;;14.43;7.38;;;15.10;99.90;;;;;;5012585;28;20042;-67
2023/07/14 01:33:00;;;;;;;9.60;5.57;;;15.20;99.90;;;;;;4994740;28;20038;-67
2023/07/14 01:35:39;;;;;;;10.68;6.15;;;15.20;99.90;;;;;;4994528;28;20385;-67
2023/07/14 01:38:06;;;;;;;9.20;6.65;;;15.20;99.90;;;;;;4994572;28;20034;-67
2023/07/14 01:40:33;;;;;;;8.18;6.07;;;15.10;99.90;;;;;;4994786;28;20122;-67
2023/07/14 01:43:03;;;;;;;7.65;6.18;;;15.10;99.90;;;;;;4994615;28;20042;-67
2023/07/14 01:46:07;;;;;;;8.10;6.05;;;15.10;99.90;;;;;;5012172;28;20116;-67
2023/07/14 01:49:14;;;;;;;8.60;5.75;;;15.10;99.90;;;;;;4993202;28;20065;-67
2023/07/14 01:51:43;;;;;;;11.00;6.80;;;15.10;99.90;;;;;;4970711;28;20049;-67
2023/07/14 01:54:26;;;;;;;11.18;6.85;;;15.00;99.90;;;;;;4970599;28;20057;-67
2023/07/14 01:56:55;;;;;;;11.57;6.88;;;15.10;99.90;;;;;;4995961;28;20074;-67
2023/07/14 01:59:25;;;;;;;12.85;7.28;;;15.00;99.90;;;;;;5012071;28;20117;-67
2023/07/14 02:01:53;;;;;;;11.38;7.97;;;15.00;99.90;;;;;;5012012;28;20042;-67
2023/07/14 02:04:26;;;;;;;14.27;8.20;;;15.00;99.90;;;;;;5011575;28;20041;-67
2023/07/14 02:06:56;;;;;;;15.18;8.02;;;15.10;99.90;;;;;;5011553;28;20125;-67
2023/07/14 02:09:23;;;;;;;13.07;8.68;;;15.00;99.90;;;;;;4994207;28;20037;-67
2023/07/14 02:11:54;;;;;;;13.52;8.82;;;15.00;99.90;;;;;;5012268;28;20468;-67
2023/07/14 02:14:22;;;;;;;12.57;8.25;;;15.00;99.90;;;;;;5011723;28;20437;-67
2023/07/14 02:16:50;;;;;;;11.93;8.68;;;15.00;99.90;;;;;;5011472;28;20390;-67
2023/07/14 02:19:21;;;;;;;14.35;9.10;;;15.00;99.90;;;;;;5011676;28;20449;-67
2023/07/14 02:21:49;;;;;;;9.68;8.68;;;15.10;99.90;;;;;;5011709;28;20088;-67
2023/07/14 02:24:23;;;;;;;12.10;8.38;;;14.90;99.90;;;;;;4993856;28;20104;-68
2023/07/14 02:26:59;;;;;;;15.90;9.43;;;15.00;99.90;;;;;;5011650;28;20029;-67
2023/07/14 02:29:26;;;;;;;11.45;8.85;;;15.00;99.90;;;;;;5011800;28;20050;-67
2023/07/14 02:32:08;;;;;;;15.38;8.90;;;15.00;99.90;;;;;;5011645;28;20082;-67
2023/07/14 02:34:38;;;;;;;21.92;11.10;;;14.90;99.90;;;;;;5011854;28;20046;-67
2023/07/14 02:37:25;;;;;;;12.45;10.00;;;15.00;99.90;;;;;;4995040;28;20052;-67
2023/07/14 02:39:51;;;;;;;13.07;9.82;;;15.00;99.90;;;;;;5015512;28;20070;-67
2023/07/14 02:42:17;;;;;;;13.60;9.50;;;14.80;99.90;;;;;;4997925;28;20061;-67
2023/07/14 02:44:42;;;;;;;13.95;9.38;;;14.80;99.90;;;;;;5015294;28;20038;-67
2023/07/14 02:47:20;;;;;;;11.95;9.77;;;14.90;99.90;;;;;;5015359;28;20041;-67
2023/07/14 02:49:48;;;;;;;15.55;10.60;;;14.90;99.90;;;;;;5015852;28;20069;-67
2023/07/14 02:52:14;;;;;;;11.50;9.52;;;14.80;99.90;;;;;;4981825;28;20041;-67
2023/07/14 02:54:40;;;;;;;15.80;10.43;;;14.80;99.90;;;;;;4997580;28;20041;-67
2023/07/14 02:57:06;;;;;;;14.82;10.70;;;14.80;99.90;;;;;;4997233;28;20049;-67
2023/07/14 02:59:32;;;;;;;14.02;9.32;;;14.90;99.90;;;;;;5015291;28;20048;-67
2023/07/14 03:01:59;;;;;;;16.40;9.85;;;14.70;99.90;;;;;;4997116;28;20042;-67
2023/07/14 03:04:24;;;;;;;13.65;10.43;;;14.80;99.90;;;;;;5014869;28;20038;-68
2023/07/14 03:06:50;;;;;;;13.45;9.50;;;14.80;99.90;;;;;;5014966;28;20378;-67
2023/07/14 03:09:16;;;;;;;17.05;9.98;;;14.70;99.90;;;;;;4997465;28;20072;-67
2023/07/14 03:11:42;;;;;;;13.07;9.40;;;14.60;99.90;;;;;;5014907;28;20033;-67
2023/07/14 03:14:08;;;;;;;14.75;9.43;;;14.50;99.90;;;;;;4997257;28;20128;-67
2023/07/14 03:16:35;;;;;;;11.55;9.27;;;14.60;99.90;;;;;;5014713;28;20180;-67
2023/07/14 03:19:01;;;;;;;12.00;9.10;;;14.50;99.90;;;;;;5014635;28;20489;-67
2023/07/14 03:21:27;;;;;;;13.93;8.95;;;14.60;99.90;;;;;;5014709;28;20046;-67
2023/07/14 03:23:53;;;;;;;12.30;8.93;;;14.40;99.90;;;;;;5014692;28;20034;-67
2023/07/14 03:26:19;;;;;;;14.38;9.02;;;14.50;99.90;;;;;;4996755;28;20053;-67
2023/07/14 03:28:45;;;;;;;14.10;9.55;;;14.40;99.90;;;;;;5014884;28;20049;-67
2023/07/14 03:31:11;;;;;;;15.48;9.60;;;14.50;99.90;;;;;;5014800;28;20041;-67
2023/07/14 03:33:38;;;;;;;16.45;10.13;;;14.50;99.90;;;;;;5014581;28;20041;-67
2023/07/14 03:36:08;;;;;;;13.23;9.45;;;14.50;99.90;;;;;;5014287;28;20049;-67
2023/07/14 03:38:43;;;;;;;15.13;9.80;;;14.50;99.90;;;;;;5014479;28;20064;-67
2023/07/14 03:41:11;;;;;;;17.20;10.30;;;14.40;99.90;;;;;;5014423;28;20072;-67
2023/07/14 03:43:37;;;;;;;16.90;10.13;;;14.40;99.90;;;;;;5014439;28;20038;-67
2023/07/14 03:46:02;;;;;;;12.55;9.85;;;14.50;99.90;;;;;;5014228;28;20038;-67
2023/07/14 03:48:28;;;;;;;16.50;9.77;;;14.40;99.90;;;;;;5013917;28;20042;-67
2023/07/14 03:51:00;;;;;;;15.15;9.70;;;14.50;99.90;;;;;;5014324;28;20033;-67
2023/07/14 03:53:25;;;;;;;15.43;9.57;;;14.40;99.90;;;;;;5013877;28;20038;-67
2023/07/14 03:55:51;;;;;;;16.20;9.15;;;14.50;99.90;;;;;;4996348;28;20045;-67
2023/07/14 03:58:16;;;;;;;17.10;9.48;;;14.40;99.90;;;;;;5014232;28;20045;-67
2023/07/14 04:00:42;;;;;;;13.25;8.65;;;14.40;99.90;;;;;;5014034;28;20045;-67
2023/07/14 04:03:08;;;;;;;15.75;9.38;;;14.50;99.90;;;;;;5013238;28;20038;-67
2023/07/14 04:05:33;;;;;;;13.00;9.52;;;14.50;99.90;;;;;;5013968;28;20045;-67
2023/07/14 04:07:59;;;;;;;12.88;9.75;;;14.60;99.90;;;;;;5013691;28;20033;-67
2023/07/14 04:10:25;;;;;;;14.02;9.88;;;14.60;99.90;;;;;;4996518;28;20054;-67
2023/07/14 04:12:51;;;;;;;14.82;10.30;;;14.60;99.90;;;;;;5013640;28;20045;-67
2023/07/14 04:15:17;;;;;;;14.82;9.18;;;14.70;99.90;;;;;;5013691;28;20046;-67
2023/07/14 04:17:43;;;;;;;11.27;9.38;;;14.60;99.90;;;;;;4995816;28;20092;-67
2023/07/14 04:20:10;;;;;;;15.10;8.55;;;14.80;99.90;;;;;;5013707;28;20433;-67
2023/07/14 04:22:36;;;;;;;14.13;9.00;;;14.60;99.90;;;;;;5013370;28;20048;-67
2023/07/14 04:25:02;;;;;;;14.68;9.10;;;14.80;99.90;;;;;;5013612;28;20034;-67
2023/07/14 04:27:29;;;;;;;14.70;9.15;;;14.70;99.90;;;;;;5013414;28;20037;-67
2023/07/14 04:29:55;;;;;;;15.35;9.35;;;14.90;99.90;;;;;;4996113;28;20413;-67
2023/07/14 04:32:21;;;;;;;11.93;9.15;;;14.80;99.90;;;;;;5013254;28;20076;-67
2023/07/14 04:34:49;;;;;;;17.08;8.93;;;14.70;99.90;;;;;;5013129;28;20069;-67
2023/07/14 04:37:15;;;;;;;12.43;8.65;;;14.80;99.90;;;;;;5012870;28;20116;-67
2023/07/14 04:39:41;;;;;;;13.82;8.63;;;14.80;99.90;;;;;;5013028;28;20042;-67
2023/07/14 04:42:07;;;;;;;16.75;8.65;;;14.90;99.90;;;;;;5013303;28;20467;-67
2023/07/14 04:44:33;;;;;;;12.50;8.90;;;15.00;99.90;;;;;;5012521;28;20121;-67
2023/07/14 04:46:59;;;;;;;12.38;8.07;;;15.00;99.90;;;;;;5012004;28;20038;-67
2023/07/14 04:49:25;;;;;;;16.10;9.43;;;15.10;99.90;;;;;;4995565;28;20456;-67
2023/07/14 04:51:50;;;;;;;12.30;8.43;;;15.00;99.90;;;;;;5012979;28;20060;-67
2023/07/14 04:54:16;;;;;;;10.82;7.78;;;15.00;99.90;;;;;;5013073;28;20409;-67
2023/07/14 04:56:43;;;;;;;13.23;8.27;;;15.10;99.90;;;;;;5012603;28;20034;-67
2023/07/14 04:59:09;;;;;;;12.75;8.63;;;15.30;99.90;;;;;;4991425;28;20077;-67
2023/07/14 05:01:35;;;;;;;17.23;7.68;;;15.30;99.90;;;;;;4992440;28;20034;-67
2023/07/14 05:04:01;;;;;;;12.75;8.02;;;15.50;99.90;;;;;;4993038;28;20403;-67
2023/07/14 05:06:26;;;;;;;13.98;8.00;;;15.70;99.90;;;;;;4992868;28;20042;-67
2023/07/14 05:08:52;;;;;;;17.75;9.00;;;15.70;99.90;;;;;;4993474;28;20044;-67
2023/07/14 05:11:18;;;;;;;14.73;8.68;;;15.80;99.90;;;;;;4993003;28;20397;-67
2023/07/14 05:13:44;;;;;;;12.85;7.10;;;15.80;99.90;;;;;;4992982;28;20038;-67
2023/07/14 05:16:10;;;;;;;12.80;7.35;;;16.00;99.90;;;;;;4992749;28;20516;-67
2023/07/14 05:18:36;;;;;;;9.10;6.55;;;16.10;99.90;;;;;;4992896;28;20047;-67
2023/07/14 05:21:05;;;;;;;10.25;7.25;;;16.20;99.90;;;;;;4992710;28;20069;-67
2023/07/14 05:23:31;;;;;;;12.27;6.57;;;16.50;99.90;;;;;;4992809;28;20042;-67
2023/07/14 05:25:57;;;;;;;9.55;6.00;;;16.50;99.90;;;;;;4992724;28;20130;-67
2023/07/14 05:28:23;;;;;;;9.45;6.70;;;16.80;99.90;;;;;;4992941;28;20050;-67
2023/07/14 05:30:51;;;;;;;11.55;6.55;;;16.90;99.90;;;;;;4992950;28;20050;-67
2023/07/14 05:33:17;;;;;;;11.52;6.90;;;17.00;99.90;;;;;;4992557;28;20049;-67
2023/07/14 05:35:45;;;;;;;12.30;7.43;;;17.20;99.90;;;;;;4992638;28;20035;-67
2023/07/14 05:38:10;;;;;;;12.60;6.30;;;17.20;99.90;;;;;;4992877;28;20042;-67
2023/07/14 05:40:36;;;;;;;12.93;6.05;;;17.40;99.90;;;;;;4992820;28;20031;-67
2023/07/14 05:43:02;;;;;;;10.00;6.45;;;17.60;99.90;;;;;;4975290;28;20441;-67
2023/07/14 05:45:27;;;;;;;7.75;5.60;;;17.80;99.90;;;;;;4992317;28;20072;-67
2023/07/14 05:47:53;;;;;;;14.05;5.50;;;17.90;99.90;;;;;;4992364;28;20548;-67
2023/07/14 05:50:19;;;;;;;10.27;4.90;;;18.10;99.90;;;;;;4992750;28;20064;-67
2023/07/14 05:52:46;;;;;;;8.23;5.53;;;18.30;99.90;;;;;;4992539;28;20437;-67
2023/07/14 05:55:12;;;;;;;6.53;4.50;;;18.50;99.90;;;;;;4991262;28;20100;-67
2023/07/14 05:57:38;;;;;;;7.10;5.18;;;18.80;99.90;;;;;;4992146;28;20481;-67
2023/07/14 06:00:13;;;;;;;10.25;5.47;;;18.70;99.90;;;;;;4992382;28;20121;-67
2023/07/14 06:02:40;;;;;;;13.50;5.13;;;19.00;99.90;;;;;;4974339;28;20039;-67
2023/07/14 06:05:08;;;;;;;8.35;4.70;;;19.20;99.90;;;;;;4991135;28;20038;-67
2023/07/14 06:07:34;;;;;;;7.25;4.50;;;19.50;99.90;;;;;;4992074;28;20406;-67
2023/07/14 06:09:59;;;;;;;8.60;5.03;;;19.60;99.90;;;;;;4992430;28;20049;-67
2023/07/14 06:12:26;;;;;;;7.85;4.85;;;19.80;99.90;;;;;;4974581;28;20410;-67
2023/07/14 06:14:51;;;;;;;6.38;4.97;;;19.80;99.90;;;;;;4975072;28;20457;-68
2023/07/14 06:17:17;;;;;;;5.85;4.68;;;19.70;99.90;;;;;;4991729;28;20050;-67
2023/07/14 06:19:43;;;;;;;8.10;4.45;;;19.70;99.90;;;;;;4992245;28;20030;-67
2023/07/14 06:22:08;;;;;;;6.53;4.22;;;20.00;99.90;;;;;;4992201;28;20406;-67
2023/07/14 06:24:35;;;;;;;7.97;4.47;;;20.20;99.90;;;;;;4992115;28;20037;-69
2023/07/14 06:27:02;;;;;;;5.20;3.58;;;20.50;99.90;;;;;;4990600;28;20042;-69
2023/07/14 06:29:28;;;;;;;8.60;4.43;;;20.70;99.90;;;;;;4990848;28;20046;-68
2023/07/14 06:31:54;;;;;;;8.93;4.60;;;21.10;99.90;;;;;;4991032;28;20703;-68
2023/07/14 06:34:19;;;;;;;7.15;3.72;;;21.30;99.90;;;;;;4992043;28;20114;-68
2023/07/14 06:36:45;;;;;;;7.90;3.80;;;21.50;99.90;;;;;;4991898;28;20418;-68
2023/07/14 06:39:12;;;;;;;10.50;3.95;;;21.80;99.90;;;;;;4992047;28;20039;-68
2023/07/14 06:41:37;;;;;;;6.72;3.35;;;22.10;99.90;;;;;;4992088;28;20057;-68
2023/07/14 06:44:03;;;;;;;8.57;3.80;;;22.40;99.90;;;;;;4991941;28;20042;-68
2023/07/14 06:46:30;;;;;;;8.30;3.38;;;22.40;99.90;;;;;;4991602;28;20165;-68
2023/07/14 06:48:57;;;;;;;7.97;3.10;;;22.50;99.90;;;;;;4991890;28;20564;-68
2023/07/14 06:51:24;;;;;;;11.02;3.28;;;22.70;99.90;;;;;;4990869;28;20034;-68
2023/07/14 06:53:50;;;;;;;6.60;3.55;;;23.00;99.90;;;;;;4991945;28;20117;-68
2023/07/14 06:56:16;;;;;;;8.93;3.03;;;22.90;99.90;;;;;;4974445;28;20142;-68
2023/07/14 06:58:42;;;;;;;6.10;3.08;;;23.20;99.90;;;;;;4991842;28;20046;-68
2023/07/14 07:01:07;;;;;;;7.97;3.30;;;23.30;99.90;;;;;;4992036;28;20092;-68
2023/07/14 07:03:34;;;;;;;9.95;3.92;;;23.30;99.90;;;;;;5021027;22;20438;-68
2023/07/14 07:06:00;;;;;;;8.63;3.25;;;23.40;99.90;;;;;;5028541;28;20041;-68
2023/07/14 07:08:26;;;;;;;4.07;3.15;;;23.70;99.90;;;;;;5031133;28;20049;-68
2023/07/14 07:10:52;;;;;;;8.77;3.40;;;23.60;99.90;;;;;;5031155;28;20087;-68
2023/07/14 07:13:18;;;;;;;6.78;3.38;;;23.60;99.90;;;;;;5029248;28;20117;-68
2023/07/14 07:15:44;;;;;;;5.95;2.70;;;23.90;99.90;;;;;;5010705;28;20052;-68
2023/07/14 07:18:10;;;;;;;6.13;2.78;;;24.00;99.90;;;;;;5011232;28;20046;-68
2023/07/14 07:20:37;;;;;;;5.85;2.85;;;24.00;99.90;;;;;;5011488;28;20034;-68
2023/07/14 07:23:03;;;;;;;5.70;2.58;;;24.00;99.20;;;;;;5012192;28;20465;-68
2023/07/14 07:25:28;;;;;;;6.85;2.28;;;24.30;99.10;;;;;;5013415;28;20132;-68
2023/07/14 07:27:54;;;;;;;7.20;2.95;;;24.40;97.90;;;;;;5014735;28;20040;-68
2023/07/14 07:30:20;;;;;;;5.88;2.83;;;24.70;97.40;;;;;;5014714;28;20046;-68
2023/07/14 07:32:47;;;;;;;5.63;2.50;;;24.70;97.80;;;;;;5014904;28;20033;-68
2023/07/14 07:35:14;;;;;;;4.30;2.17;;;24.80;96.80;;;;;;5014796;28;20451;-68
2023/07/14 07:37:39;;;;;;;5.05;2.40;;;24.80;95.80;;;;;;5014405;28;20034;-68
2023/07/14 07:40:09;;;;;;;6.38;2.08;;;24.90;94.90;;;;;;5014680;28;20044;-67
2023/07/14 07:42:35;;;;;;;6.13;2.22;;;25.00;94.50;;;;;;5014639;28;20038;-67
2023/07/14 07:45:02;;;;;;;6.22;2.03;;;25.30;94.30;;;;;;5014381;28;20034;-68
2023/07/14 07:47:28;;;;;;;6.43;2.50;;;25.30;93.70;;;;;;5014302;28;20041;-68
2023/07/14 07:49:54;;;;;;;5.13;2.05;;;25.00;93.60;;;;;;5014594;28;20056;-68
2023/07/14 07:52:20;;;;;;;6.78;2.35;;;24.90;93.50;;;;;;5013096;28;20053;-68
2023/07/14 07:54:46;;;;;;;5.20;2.15;;;24.90;93.30;;;;;;5014382;28;20113;-68
2023/07/14 07:57:12;;;;;;;8.90;2.22;;;25.10;93.30;;;;;;5014036;28;20536;-68
2023/07/14 07:59:38;;;;;;;4.82;2.40;;;25.30;93.50;;;;;;5014138;28;20382;-68
2023/07/14 08:02:06;;;;;;;7.90;2.85;;;25.40;93.40;;;;;;5014324;28;20096;-68
2023/07/14 08:04:33;;;;;;;8.75;2.42;;;25.30;93.10;;;;;;5013987;28;20065;-68
2023/07/14 08:06:59;;;;;;;4.72;2.72;;;25.40;93.60;;;;;;5013702;28;20507;-68
2023/07/14 08:09:25;;;;;;;8.60;2.85;;;25.60;92.00;;;;;;5014213;28;20061;-68
2023/07/14 08:11:55;;;;;;;4.82;2.20;;;25.50;92.20;;;;;;5013955;28;20485;-68
2023/07/14 08:14:21;;;;;;;4.25;2.40;;;25.20;92.40;;;;;;5013898;28;20046;-68
2023/07/14 08:16:46;;;;;;;5.20;2.35;;;25.50;92.20;;;;;;5013692;28;20576;-68
2023/07/14 08:19:16;;;;;;;4.38;2.00;;;25.50;92.40;;;;;;5013702;28;20413;-68
2023/07/14 08:21:42;;;;;;;5.82;2.53;;;25.10;92.20;;;;;;5013901;28;20048;-68
2023/07/14 08:24:09;;;;;;;5.07;2.15;;;25.20;91.30;;;;;;5013600;28;20124;-68
2023/07/14 08:26:36;;;;;;;6.40;2.17;;;25.30;90.50;;;;;;5013360;28;20095;-68
2023/07/14 08:29:03;;;;;;;4.88;2.20;;;25.20;88.70;;;;;;5013698;28;20042;-69
2023/07/14 08:31:29;;;;;;;5.40;1.90;;;25.60;88.50;;;;;;5013769;28;20453;-68
2023/07/14 08:33:56;;;;;;;3.15;1.75;;;25.80;85.50;;;;;;5013209;28;20437;-69
2023/07/14 08:36:22;;;;;;;8.90;2.00;;;25.70;86.00;;;;;;5011556;28;20070;-69
2023/07/14 08:38:48;;;;;;;3.75;2.05;;;26.10;85.10;;;;;;5012228;28;20046;-68
2023/07/14 08:41:29;;;;;;;5.03;2.20;;;26.30;84.20;;;;;;5013383;28;20439;-68
2023/07/14 08:44:35;;;;;;;5.05;2.35;;;25.80;79.70;;;;;;5013665;28;20473;-68
2023/07/14 08:47:31;;;;;;;4.50;2.20;;;25.60;77.20;;;;;;5013175;28;20121;-68
2023/07/14 08:50:06;;;;;;;3.97;2.17;;;25.30;75.50;;;;;;5013621;28;20048;-68
2023/07/14 08:52:35;;;;;;;7.75;2.30;;;25.80;75.20;;;;;;5013052;28;20030;-69
2023/07/14 08:55:19;;;;;;;5.95;2.90;;;25.90;75.60;;;;;;5013001;28;20042;-69
2023/07/14 08:57:50;;;;;;;6.50;2.40;;;25.60;75.00;;;;;;5012246;28;20514;-68
2023/07/14 09:00:40;;;;;;;3.97;2.00;;;25.30;74.20;;;;;;5012862;28;20042;-68
2023/07/14 09:03:32;;;;;;;7.43;2.55;;;25.60;73.40;;;;;;5010581;28;20049;-68
2023/07/14 09:06:09;;;;;;;3.53;2.03;;;25.80;74.60;;;;;;5012298;28;20524;-69
2023/07/14 09:08:35;;;;;;;5.47;2.38;;;26.00;75.50;;;;;;5012487;28;20417;-69
2023/07/14 09:11:17;;;;;;;7.80;2.45;;;26.00;70.70;;;;;;5012654;28;20030;-68
2023/07/14 09:13:54;;;;;;;5.30;2.22;;;26.10;70.00;;;;;;5012531;28;20087;-69
2023/07/14 09:16:23;;;;;;;6.60;2.33;;;26.30;68.10;;;;;;5012741;28;20049;-68
2023/07/14 09:19:19;;;;;;;3.53;1.92;;;26.30;66.90;;;;;;5012669;28;20592;-68
2023/07/14 09:22:03;;;;;;;4.88;2.85;;;26.10;63.70;;;;;;5012853;28;20613;-67
2023/07/14 09:24:48;;;;;;;10.65;2.50;;;25.40;67.30;;;;;;5011676;28;20401;-67
2023/07/14 09:27:30;;;;;;;7.82;2.20;;;25.10;66.20;;;;;;5012319;28;20394;-67
2023/07/14 09:29:57;;;;;;;7.35;2.60;;;24.70;65.60;;;;;;5012292;28;20386;-68
2023/07/14 09:32:41;;;;;;;7.82;2.42;;;25.00;69.30;;;;;;5012192;28;20084;-67
2023/07/14 09:35:18;;;;;;;3.95;2.10;;;25.40;73.10;;;;;;5011756;28;20044;-67
2023/07/14 09:37:49;;;;;;;8.57;3.00;;;25.60;69.80;;;;;;5010727;28;20088;-67
2023/07/14 09:40:19;;;;;;;8.07;2.17;;;25.60;68.20;;;;;;4993049;28;20034;-68
2023/07/14 09:42:53;;;;;;;6.15;2.50;;;25.70;67.40;;;;;;4992767;28;20505;-67
2023/07/14 09:45:32;;;;;;;3.65;1.80;;;25.80;65.10;;;;;;4992416;28;20043;-67
2023/07/14 09:48:29;;;;;;;4.28;1.90;;;26.10;65.90;;;;;;4991447;28;20046;-68
2023/07/14 09:51:06;;;;;;;4.53;2.00;;;26.10;63.70;;;;;;5007413;28;20052;-68
2023/07/14 09:53:35;;;;;;;4.05;1.92;;;26.10;63.50;;;;;;5008409;28;20038;-67
2023/07/14 09:56:06;;;;;;;3.55;1.90;;;25.80;63.30;;;;;;5010100;28;20576;-68
2023/07/14 09:58:33;;;;;;;4.60;2.28;;;25.70;66.40;;;;;;5010275;28;20096;-68
2023/07/14 10:01:12;;;;;;;2.65;1.92;;;25.60;68.20;;;;;;5010330;28;20038;-68
2023/07/14 10:03:51;;;;;;;4.45;1.83;;;25.70;68.40;;;;;;5010725;28;20401;-67
2023/07/14 10:06:28;;;;;;;4.03;2.13;;;25.60;67.50;;;;;;5009548;28;20040;-67
2023/07/14 10:08:57;;;;;;;3.03;1.50;;;25.30;68.70;;;;;;5006123;28;20049;-67
2023/07/14 10:11:29;;;;;;;3.13;1.98;;;25.40;71.50;;;;;;5011142;28;20065;-67
2023/07/14 10:14:01;;;;;;;4.50;2.00;;;25.10;71.70;;;;;;5010833;28;20516;-67
2023/07/14 10:16:32;;;;;;;3.97;2.10;;;25.00;71.70;;;;;;5002545;28;20034;-66
2023/07/14 10:19:13;;;;;;;3.80;1.75;;;24.30;72.30;;;;;;4992157;28;20046;-67
2023/07/14 10:21:54;;;;;;;3.85;2.15;;;24.40;73.70;;;;;;4992252;28;20571;-67
2023/07/14 10:24:21;;;;;;;6.60;2.08;;;24.00;78.20;;;;;;4992088;28;20588;-67
2023/07/14 10:26:52;;;;;;;4.43;1.77;;;23.80;80.20;;;;;;4992010;28;20035;-67
2023/07/14 10:29:21;;;;;;;6.47;2.20;;;23.90;80.60;;;;;;4992152;28;20421;-67
2023/07/14 10:32:09;;;;;;;5.25;2.55;;;24.20;81.40;;;;;;5005154;28;20049;-66
2023/07/14 10:34:37;;;;;;;4.30;2.70;;;24.40;78.20;;;;;;4995390;28;20038;-66
2023/07/14 10:37:11;;;;;;;5.13;2.00;;;24.50;78.10;;;;;;5011426;28;20115;-66
2023/07/14 10:39:42;;;;;;;4.53;1.75;;;24.80;74.50;;;;;;5011676;28;20046;-66
2023/07/14 10:42:15;;;;;;;4.78;2.40;;;24.60;74.30;;;;;;5005046;28;20517;-66
2023/07/14 10:44:44;;;;;;;2.55;1.90;;;24.90;73.10;;;;;;5010822;28;20512;-66
2023/07/14 10:47:18;;;;;;;4.30;2.20;;;24.50;73.90;;;;;;5011360;28;20732;-66
2023/07/14 10:49:51;;;;;;;3.90;2.38;;;24.30;75.20;;;;;;5010436;28;20113;-66
2023/07/14 10:52:30;;;;;;;3.55;2.05;;;24.10;76.20;;;;;;5003970;28;20172;-67
2023/07/14 10:55:21;;;;;;;4.35;2.00;;;24.00;80.00;;;;;;4991914;28;20494;-67
2023/07/14 10:57:54;;;;;;;4.25;2.22;;;24.30;81.80;;;;;;4992176;28;20038;-66
2023/07/14 11:00:25;;;;;;;3.22;1.98;;;24.20;77.40;;;;;;5002250;28;20044;-67
2023/07/14 11:03:21;;;;;;;4.10;2.15;;;24.30;79.10;;;;;;5003665;28;20121;-66
2023/07/14 11:06:18;;;;;;;5.72;2.40;;;24.30;78.90;;;;;;4995578;28;20039;-67
2023/07/14 11:08:50;;;;;;;3.90;2.35;;;24.50;78.10;;;;;;4994741;28;20509;-67
2023/07/14 11:11:15;;;;;;;4.72;2.08;;;24.60;78.20;;;;;;4995561;28;20046;-67
2023/07/14 11:14:01;;;;;;;4.65;2.28;;;24.70;77.80;;;;;;4995573;28;20046;-67
2023/07/14 11:16:50;;;;;;;5.45;2.17;;;24.90;73.50;;;;;;4995409;28;20132;-67
2023/07/14 11:19:32;;;;;;;3.58;1.80;;;25.00;73.90;;;;;;4995530;28;20046;-67
2023/07/14 11:22:09;;;;;;;5.40;2.78;;;24.80;75.00;;;;;;4995663;28;20047;-67
2023/07/14 11:24:50;;;;;;;3.35;2.22;;;24.30;74.30;;;;;;4995312;28;20039;-67
2023/07/14 11:27:18;;;;;;;3.78;2.38;;;24.20;73.40;;;;;;4995037;28;20042;-67
2023/07/14 11:29:56;;;;;;;4.57;2.38;;;24.30;73.70;;;;;;5004438;28;20410;-67
2023/07/14 11:32:28;;;;;;;3.85;1.90;;;24.50;76.70;;;;;;5006539;28;20497;-67
2023/07/14 11:35:01;;;;;;;3.13;2.28;;;24.60;79.20;;;;;;5013568;28;20053;-67
2023/07/14 11:37:41;;;;;;;6.80;2.70;;;24.40;79.70;;;;;;5014568;28;20124;-67
2023/07/14 11:40:19;;;;;;;8.32;4.07;;;24.10;81.80;;;;;;5014686;28;20568;-67
2023/07/14 11:42:57;;;;;;;7.68;2.70;;;23.80;84.10;;;;;;5014958;28;20038;-67
2023/07/14 11:45:29;;;;;;;5.25;2.67;;;23.80;88.00;;;;;;5013277;28;20580;-68
2023/07/14 11:47:57;;;;;;;4.80;2.47;;;23.90;88.20;;;;;;5014358;28;20421;-68
2023/07/14 11:50:29;;;;;;;4.25;2.17;;;24.00;88.30;;;;;;5014562;28;20065;-68
2023/07/14 11:53:05;;;;;;;4.07;2.43;;;24.00;85.70;;;;;;5014496;28;20045;-67
2023/07/14 11:55:32;;;;;;;5.30;2.38;;;24.20;83.10;;;;;;5014512;28;20277;-67
2023/07/14 11:58:11;;;;;;;5.03;3.10;;;24.10;83.80;;;;;;5014214;28;20048;-67
2023/07/14 12:00:46;;;;;;;5.18;2.22;;;24.10;80.20;;;;;;5014375;28;20081;-66
2023/07/14 12:03:33;;;;;;;5.97;2.97;;;24.00;81.40;;;;;;5013984;28;20397;-67
2023/07/14 12:06:20;;;;;;;3.50;2.10;;;24.10;81.50;;;;;;5013674;28;20381;-67
2023/07/14 12:09:04;;;;;;;4.75;2.40;;;24.00;80.10;;;;;;5013931;28;20074;-67
2023/07/14 12:11:42;;;;;;;5.93;2.42;;;24.20;83.90;;;;;;5013997;28;20042;-68
2023/07/14 12:14:35;;;;;;;3.13;2.05;;;24.40;82.60;;;;;;5014215;28;20120;-68
2023/07/14 12:17:03;;;;;;;3.70;2.30;;;24.60;80.70;;;;;;5013854;28;20120;-70
2023/07/14 12:19:49;;;;;;;4.07;2.55;;;24.60;80.40;;;;;;5013262;28;20080;-67
2023/07/14 12:22:39;;;;;;;6.15;2.65;;;24.50;81.50;;;;;;5014009;28;20402;-67
2023/07/14 12:25:13;;;;;;;4.95;2.22;;;24.20;79.00;;;;;;5012369;28;20038;-67
2023/07/14 12:27:48;;;;;;;3.88;2.90;;;24.30;79.10;;;;;;5012667;28;20496;-67
2023/07/14 12:30:23;;;;;;;4.00;2.25;;;24.10;81.00;;;;;;5013179;28;20049;-67
2023/07/14 12:33:00;;;;;;;4.47;2.53;;;24.00;82.40;;;;;;5013726;28;20073;-67
2023/07/14 12:35:27;;;;;;;3.35;2.10;;;24.00;83.60;;;;;;5013178;28;20034;-67
2023/07/14 12:37:53;;;;;;;4.43;2.33;;;24.00;85.60;;;;;;5012973;28;20048;-66
2023/07/14 12:40:21;;;;;;;4.43;2.35;;;23.80;83.60;;;;;;5013047;28;20400;-66
2023/07/14 12:42:48;;;;;;;3.80;2.38;;;23.70;83.50;;;;;;5012949;28;20030;-66
2023/07/14 12:45:17;;;;;;;4.75;2.22;;;23.60;82.10;;;;;;5013093;28;20037;-67
2023/07/14 12:47:46;;;;;;;5.10;2.65;;;23.50;82.20;;;;;;5012767;28;20037;-67
2023/07/14 12:50:17;;;;;;;7.95;2.30;;;23.50;83.90;;;;;;5012775;28;20135;-67
2023/07/14 12:52:47;;;;;;;4.33;1.83;;;23.40;85.30;;;;;;5010473;28;20517;-67
2023/07/14 12:55:15;;;;;;;2.53;2.00;;;23.30;86.70;;;;;;5011845;28;20048;-67
2023/07/14 12:57:45;;;;;;;7.22;2.83;;;23.20;88.60;;;;;;5012789;28;20049;-68
2023/07/14 13:00:23;;;;;;;5.95;2.60;;;23.10;88.60;;;;;;5012866;28;20045;-67
2023/07/14 13:02:50;;;;;;;4.88;2.50;;;23.00;88.60;;;;;;5012492;28;20551;-68